Aviation Digital Data Service (ADDS)

Output produced by METARs form (0911 UTC 17 November 2018)
found at http://www.aviationweather.gov/metar/data/
 
TAF SMJP 162200Z 1700/1724 08004KT 9999 SCT030 TX32/1717Z TN23/1710Z 
     TEMPO 1708/1711 VRB02KT 2000 BR SCT002 
     BECMG 1711/1713 08010KT SCT015 
     TEMPO 1717/1722 VRB12G22KT 4000 SHRA FEW015CB SCT020 
     PROB30 
     TEMPO 1718/1720 2000 TSRA